Time;durP1;ratioP1;P1;durP2;ratioP2;P2;SDS_P1;SDS_P2;PMS_P1;PMS_P2;Temp;Humidity;BMP_temperature;BMP_pressure;BME280_temperature;BME280_humidity;BME280_pressure;Samples;Min_cycle;Max_cycle;Signal;HPM_P1;HPM_P2
2021/10/09 00:01:49;;;;;;;0.60;0.60;;;;;;;7.49;82.16;96997.78;5052762;28;20449;-62
2021/10/09 00:04:15;;;;;;;1.65;0.70;;;;;;;7.42;82.00;96995.28;5052795;28;20025;-61
2021/10/09 00:06:40;;;;;;;0.80;0.80;;;;;;;7.42;82.35;97002.22;5052739;28;20033;-62
2021/10/09 00:09:06;;;;;;;2.72;0.90;;;;;;;7.37;82.66;96996.25;5052924;28;20371;-61
2021/10/09 00:11:37;;;;;;;0.90;0.90;;;;;;;7.40;82.50;96990.97;5052719;28;20128;-61
2021/10/09 00:14:03;;;;;;;;;;;;;;;7.43;82.52;96996.13;5053106;28;20538;-62
2021/10/09 00:16:29;;;;;;;0.60;0.60;;;;;;;7.32;82.31;96997.16;5052659;28;19923;-61
2021/10/09 00:18:55;;;;;;;0.90;0.70;;;;;;;7.33;82.27;96991.09;5052627;28;20107;-61
2021/10/09 00:21:20;;;;;;;0.80;0.80;;;;;;;7.35;82.35;97000.63;5052803;28;20421;-61
2021/10/09 00:23:46;;;;;;;0.80;0.80;;;;;;;7.32;81.92;96997.16;5052615;28;20360;-61
2021/10/09 00:26:11;;;;;;;0.82;0.77;;;;;;;7.32;82.91;96998.94;5052577;28;20021;-61
2021/10/09 00:28:37;;;;;;;1.02;0.93;;;;;;;7.32;82.70;97001.53;5052527;28;20486;-62
2021/10/09 00:31:02;;;;;;;1.33;0.93;;;;;;;7.33;82.00;96995.44;5052553;28;20502;-62
2021/10/09 00:33:28;;;;;;;1.10;0.80;;;;;;;7.29;82.41;96992.00;5052500;28;20483;-61
2021/10/09 00:35:54;;;;;;;1.67;1.10;;;;;;;7.30;82.96;96993.75;5052586;28;20036;-62
2021/10/09 00:38:19;;;;;;;1.13;1.00;;;;;;;7.38;82.91;96984.94;5052385;28;20041;-62
2021/10/09 00:40:45;;;;;;;2.72;0.98;;;;;;;7.32;81.72;96981.56;5052429;28;20021;-61
2021/10/09 00:43:10;;;;;;;1.90;0.90;;;;;;;7.31;81.72;96987.66;5052356;28;20021;-61
2021/10/09 00:45:36;;;;;;;0.70;0.70;;;;;;;7.26;81.62;96993.84;5052503;28;20025;-61
2021/10/09 00:48:02;;;;;;;2.45;1.00;;;;;;;7.25;82.65;96989.53;5052335;28;20014;-62
2021/10/09 00:50:28;;;;;;;2.17;1.20;;;;;;;7.28;82.49;96981.63;5052330;28;20499;-62
2021/10/09 00:52:57;;;;;;;1.77;1.20;;;;;;;7.22;81.78;96985.19;5052485;28;20025;-61
2021/10/09 00:55:23;;;;;;;1.10;1.00;;;;;;;7.22;82.06;96985.19;5052311;28;20021;-61
2021/10/09 00:57:51;;;;;;;1.08;0.98;;;;;;;7.20;81.72;96969.63;5053462;28;20075;-61
2021/10/09 01:00:16;;;;;;;2.40;1.02;;;;;;;7.25;81.96;96979.94;5055864;28;20120;-62
2021/10/09 01:02:42;;;;;;;4.85;1.05;;;;;;;7.19;82.52;96980.06;5055729;28;20431;-61
2021/10/09 01:05:09;;;;;;;1.52;0.90;;;;;;;7.18;82.62;96971.41;5055795;28;20044;-62
2021/10/09 01:07:35;;;;;;;7.60;1.30;;;;;;;7.10;82.19;96972.44;5055854;28;20032;-62
2021/10/09 01:10:01;;;;;;;1.05;0.95;;;;;;;7.15;83.02;96967.97;5055691;28;20029;-61
2021/10/09 01:12:27;;;;;;;1.10;1.00;;;;;;;7.13;82.39;96967.19;5055746;28;20104;-62
2021/10/09 01:14:53;;;;;;;2.47;0.90;;;;;;;7.14;82.23;96968.88;5055641;28;20017;-62
2021/10/09 01:17:19;;;;;;;1.90;0.80;;;;;;;7.17;82.30;96974.88;5055555;28;20028;-62
2021/10/09 01:19:45;;;;;;;2.30;1.20;;;;;;;7.19;82.64;96974.84;5055466;28;20534;-61
2021/10/09 01:22:11;;;;;;;0.75;0.75;;;;;;;7.19;82.45;96970.50;5055415;28;20027;-62
2021/10/09 01:24:38;;;;;;;1.20;1.10;;;;;;;7.16;82.04;96973.16;5055385;28;20091;-61
2021/10/09 01:27:04;;;;;;;2.05;0.82;;;;;;;7.14;82.05;96979.28;5055280;28;20032;-62
2021/10/09 01:29:31;;;;;;;0.88;0.88;;;;;;;7.14;82.19;96976.69;5055265;28;20032;-61
2021/10/09 01:31:57;;;;;;;1.45;1.05;;;;;;;7.20;82.62;96969.63;5055419;28;20386;-61
2021/10/09 01:34:25;;;;;;;1.83;1.20;;;;;;;7.25;82.13;96972.13;5055309;28;20021;-61
2021/10/09 01:36:51;;;;;;;2.67;1.00;;;;;;;7.20;82.06;96974.81;5055006;28;20380;-61
2021/10/09 01:39:17;;;;;;;1.95;0.80;;;;;;;7.26;82.29;96973.88;5055115;28;20025;-62
2021/10/09 01:41:48;;;;;;;1.75;0.90;;;;;;;7.30;82.21;96977.28;5055042;28;20029;-62
2021/10/09 01:44:15;;;;;;;0.73;0.73;;;;;;;7.29;81.64;96963.38;5055065;28;20479;-61
2021/10/09 01:46:41;;;;;;;1.98;1.10;;;;;;;7.27;81.81;96964.31;5054989;28;20021;-61
2021/10/09 01:49:07;;;;;;;1.90;0.82;;;;;;;7.30;80.97;96964.25;5054981;28;20099;-61
2021/10/09 01:51:33;;;;;;;1.98;1.00;;;;;;;7.26;81.76;96952.19;5054936;28;20025;-61
2021/10/09 01:54:00;;;;;;;4.65;1.20;;;;;;;7.26;81.25;96952.19;5055002;28;20036;-62
2021/10/09 01:56:26;;;;;;;1.17;1.02;;;;;;;7.25;82.08;96956.53;5054937;28;20029;-62
2021/10/09 01:58:51;;;;;;;0.65;0.65;;;;;;;7.25;82.23;96960.91;5054824;28;20544;-61
2021/10/09 02:01:17;;;;;;;0.77;0.77;;;;;;;7.26;82.14;96962.59;5053446;28;20114;-61
2021/10/09 02:03:43;;;;;;;1.73;0.88;;;;;;;7.17;81.63;96958.41;5054707;28;20029;-61
2021/10/09 02:06:09;;;;;;;1.80;0.98;;;;;;;7.17;82.22;96971.44;5054607;28;20025;-61
2021/10/09 02:08:35;;;;;;;0.77;0.77;;;;;;;7.15;81.55;96975.78;5054319;28;20100;-61
2021/10/09 02:11:03;;;;;;;1.20;0.93;;;;;;;7.16;81.59;96980.09;5054616;28;20433;-61
2021/10/09 02:13:48;;;;;;;1.10;1.00;;;;;;;7.20;81.57;96976.59;5054416;28;20482;-61
2021/10/09 02:24:09;;;;;;;3.10;1.00;;;;;;;7.28;82.03;96987.69;5054653;28;20110;-62
2021/10/09 02:27:37;;;;;;;0.50;0.50;;;;;;;7.24;80.40;96973.03;5042107;28;20408;-62
2021/10/09 02:30:02;;;;;;;0.70;0.70;;;;;;;7.20;81.33;96974.81;5054290;28;20017;-61
2021/10/09 02:32:28;;;;;;;2.47;0.73;;;;;;;7.16;81.13;96972.28;5054230;28;20387;-61
2021/10/09 02:34:54;;;;;;;1.95;0.90;;;;;;;7.08;80.92;96972.44;5053919;28;20074;-61
2021/10/09 02:37:19;;;;;;;0.65;0.65;;;;;;;7.08;80.85;96975.06;5053669;28;20044;-61
2021/10/09 02:39:45;;;;;;;1.15;0.70;;;;;;;7.05;81.29;96978.53;5054017;28;20098;-61
2021/10/09 02:42:10;;;;;;;0.70;0.70;;;;;;;7.08;80.83;96975.06;5053789;28;20506;-60
2021/10/09 02:44:36;;;;;;;0.70;0.70;;;;;;;7.13;81.00;96981.03;5053969;28;20025;-61
2021/10/09 02:47:01;;;;;;;0.73;0.60;;;;;;;7.14;80.71;96982.75;5053868;28;20029;-61
2021/10/09 02:49:27;;;;;;;1.60;0.77;;;;;;;7.14;80.83;96977.56;5053793;28;20025;-61
2021/10/09 02:51:52;;;;;;;0.60;0.60;;;;;;;7.19;80.06;96980.06;5053791;28;20558;-62
2021/10/09 02:54:18;;;;;;;0.70;0.70;;;;;;;7.20;80.75;96977.41;5053734;28;20119;-61
2021/10/09 02:56:43;;;;;;;1.10;0.60;;;;;;;7.17;80.05;96981.84;5053664;28;20021;-62
2021/10/09 02:59:09;;;;;;;3.47;0.70;;;;;;;7.17;80.57;96977.47;5053656;28;20024;-62
2021/10/09 03:01:34;;;;;;;0.77;0.70;;;;;;;7.20;81.41;96973.97;5053538;28;20108;-61
2021/10/09 03:04:00;;;;;;;0.60;0.60;;;;;;;7.11;80.40;96977.59;5053572;28;20024;-62
2021/10/09 03:06:25;;;;;;;0.73;0.70;;;;;;;7.10;80.40;96977.63;5052327;28;20079;-62
2021/10/09 03:08:51;;;;;;;0.52;0.52;;;;;;;7.07;80.21;96968.09;5053528;28;20044;-61
2021/10/09 03:11:16;;;;;;;0.60;0.60;;;;;;;7.07;80.73;96966.38;5053491;28;20383;-62
2021/10/09 03:13:42;;;;;;;0.68;0.68;;;;;;;7.08;80.61;96968.09;5053463;28;20391;-61
2021/10/09 03:16:07;;;;;;;0.55;0.50;;;;;;;7.00;80.84;96967.38;5053358;28;20025;-62
2021/10/09 03:18:33;;;;;;;0.60;0.60;;;;;;;7.09;81.44;96966.34;5053355;28;20100;-61
2021/10/09 03:20:58;;;;;;;1.58;0.60;;;;;;;7.11;81.64;96958.53;5052684;28;20021;-61
2021/10/09 03:23:24;;;;;;;0.70;0.70;;;;;;;7.13;80.89;96964.56;5053116;28;20052;-62
2021/10/09 03:25:50;;;;;;;0.60;0.60;;;;;;;7.08;80.48;96968.09;5051928;28;20036;-61
2021/10/09 03:28:15;;;;;;;1.95;0.68;;;;;;;7.07;80.46;96970.72;5053136;28;20126;-61
2021/10/09 03:30:41;;;;;;;0.50;0.50;;;;;;;7.03;80.77;96966.44;5053122;28;20033;-62
2021/10/09 03:33:06;;;;;;;1.40;0.63;;;;;;;7.01;80.91;96960.44;5053180;28;20106;-61
2021/10/09 03:35:32;;;;;;;0.40;0.40;;;;;;;7.07;81.30;96961.19;5053061;28;20075;-62
2021/10/09 03:37:58;;;;;;;0.60;0.60;;;;;;;7.00;81.94;96963.91;5052941;28;20087;-62
2021/10/09 03:40:25;;;;;;;0.55;0.55;;;;;;;6.98;80.79;96963.09;5053074;28;20025;-62
2021/10/09 03:42:54;;;;;;;3.20;0.60;;;;;;;6.94;80.92;96970.06;5052927;28;20112;-61
2021/10/09 03:47:58;;;;;;;1.27;0.75;;;;;;;6.92;80.66;96975.28;5052948;28;20032;-61
2021/10/09 03:52:58;;;;;;;0.75;0.75;;;;;;;7.06;80.84;96987.22;5052961;28;20037;-60
2021/10/09 03:55:24;;;;;;;0.75;0.75;;;;;;;7.01;80.63;96983.84;5052950;28;20028;-61
2021/10/09 03:57:49;;;;;;;1.00;0.75;;;;;;;7.05;80.98;96990.72;5052862;28;20029;-61
2021/10/09 04:00:20;;;;;;;0.77;0.77;;;;;;;7.06;80.60;96984.63;5052765;28;20463;-61
2021/10/09 04:02:46;;;;;;;0.60;0.60;;;;;;;7.04;80.68;96997.66;5052780;28;20025;-62
2021/10/09 04:05:12;;;;;;;0.93;0.60;;;;;;;7.04;81.23;97000.25;5051589;28;20040;-61
2021/10/09 04:07:39;;;;;;;0.82;0.60;;;;;;;7.08;81.18;96991.50;5052816;28;20029;-61
2021/10/09 04:10:06;;;;;;;0.40;0.40;;;;;;;7.12;80.83;96997.53;5052752;28;20132;-61
2021/10/09 04:12:32;;;;;;;2.88;0.90;;;;;;;7.20;81.36;97002.59;5052686;28;20023;-60
2021/10/09 04:14:58;;;;;;;0.70;0.70;;;;;;;7.31;81.38;97005.88;5052739;28;20051;-62
2021/10/09 04:17:23;;;;;;;1.27;0.80;;;;;;;7.32;80.82;96998.94;5052722;28;20471;-61
2021/10/09 04:19:49;;;;;;;0.80;0.70;;;;;;;7.33;80.27;97003.25;5052634;28;20479;-61
2021/10/09 04:22:14;;;;;;;1.08;0.98;;;;;;;7.32;80.15;97006.75;5052683;28;20021;-61
2021/10/09 04:24:40;;;;;;;1.80;0.95;;;;;;;7.35;80.61;97011.91;5052608;28;20013;-61
2021/10/09 04:27:06;;;;;;;0.80;0.80;;;;;;;7.36;80.71;97007.53;5052637;28;20033;-61
2021/10/09 04:29:31;;;;;;;3.42;1.05;;;;;;;7.33;80.37;97011.91;5052560;28;20048;-61
2021/10/09 04:31:57;;;;;;;0.90;0.90;;;;;;;7.41;81.26;97011.75;5053916;28;20446;-60
2021/10/09 04:34:22;;;;;;;1.48;0.70;;;;;;;7.36;81.10;97010.13;5056391;28;20137;-61
2021/10/09 04:36:48;;;;;;;0.60;0.60;;;;;;;7.37;80.97;97012.72;5056086;28;20052;-62
2021/10/09 04:39:14;;;;;;;0.80;0.80;;;;;;;7.26;80.48;97009.44;5056348;28;20025;-61
2021/10/09 04:41:39;;;;;;;0.70;0.63;;;;;;;7.25;81.02;97010.34;5056313;28;20040;-61
2021/10/09 04:44:06;;;;;;;0.80;0.73;;;;;;;7.13;80.49;97008.81;5056287;28;20108;-61
2021/10/09 04:46:32;;;;;;;0.68;0.57;;;;;;;7.05;81.26;97009.75;5056150;28;20028;-61
2021/10/09 04:48:58;;;;;;;0.77;0.70;;;;;;;7.06;81.58;97011.50;5056066;28;20534;-61
2021/10/09 04:51:24;;;;;;;0.60;0.60;;;;;;;6.97;81.59;97008.16;5056041;28;20028;-61
2021/10/09 04:53:50;;;;;;;2.67;0.95;;;;;;;6.96;82.46;97009.94;5056023;28;20021;-61
2021/10/09 04:56:16;;;;;;;2.88;0.90;;;;;;;6.93;82.55;97015.19;5056066;28;20024;-61
2021/10/09 04:58:42;;;;;;;1.08;0.68;;;;;;;6.83;82.64;97025.72;5055908;28;20348;-61
2021/10/09 05:01:07;;;;;;;0.80;0.80;;;;;;;6.85;82.59;97025.69;5055871;28;20120;-61
2021/10/09 05:03:33;;;;;;;1.92;0.88;;;;;;;6.81;82.45;97032.69;5055783;28;20032;-61
2021/10/09 05:05:58;;;;;;;4.97;0.75;;;;;;;6.85;82.69;97035.22;5055814;28;20025;-61
2021/10/09 05:08:24;;;;;;;1.65;0.80;;;;;;;6.83;83.00;97038.72;5055814;28;20029;-61
2021/10/09 05:10:49;;;;;;;1.00;0.90;;;;;;;6.83;82.82;97035.25;5055730;28;20390;-61
2021/10/09 05:13:15;;;;;;;0.80;0.70;;;;;;;6.83;83.11;97033.53;5055744;28;20041;-62
2021/10/09 05:15:42;;;;;;;0.70;0.70;;;;;;;6.82;83.05;97026.63;5055688;28;20104;-61
2021/10/09 05:18:09;;;;;;;1.00;0.80;;;;;;;6.88;82.68;97041.25;5055718;28;20052;-62
2021/10/09 05:20:35;;;;;;;0.50;0.50;;;;;;;6.82;83.03;97024.00;5054389;28;20558;-61
2021/10/09 05:23:00;;;;;;;2.75;0.80;;;;;;;6.85;83.65;97030.91;5055354;28;20035;-62
2021/10/09 05:25:26;;;;;;;0.70;0.70;;;;;;;6.91;83.41;97029.94;5055449;28;20096;-62
2021/10/09 05:28:00;;;;;;;1.13;0.60;;;;;;;6.94;83.25;97041.16;5055401;28;20104;-61
2021/10/09 05:30:26;;;;;;;0.60;0.60;;;;;;;6.94;82.71;97040.31;5055520;28;20033;-61
2021/10/09 05:35:36;;;;;;;1.92;0.70;;;;;;;6.86;82.72;97042.16;5055293;28;20120;-61
2021/10/09 05:38:02;;;;;;;0.50;0.50;;;;;;;6.79;82.78;97044.88;5055034;28;20128;-62
2021/10/09 05:40:28;;;;;;;0.60;0.60;;;;;;;6.78;83.55;97045.75;5055144;28;20063;-61
2021/10/09 05:42:53;;;;;;;0.40;0.40;;;;;;;6.78;84.08;97045.75;5054765;28;20060;-61
2021/10/09 05:45:19;;;;;;;0.70;0.70;;;;;;;6.75;83.37;97042.31;5054882;28;20420;-61
2021/10/09 05:47:47;;;;;;;0.60;0.60;;;;;;;6.73;83.47;97046.69;5055026;28;20025;-61
2021/10/09 05:50:13;;;;;;;2.70;0.77;;;;;;;6.75;83.41;97056.19;5054812;28;20025;-61
2021/10/09 05:55:24;;;;;;;0.70;0.60;;;;;;;6.80;84.04;97054.38;5054925;28;20025;-61
2021/10/09 06:00:48;;;;;;;0.98;0.70;;;;;;;6.81;84.00;97068.25;5054739;28;20035;-61
2021/10/09 06:25:36;;;;;;;0.40;0.40;;;;;;;6.90;83.75;97080.25;5054277;28;20537;-62
2021/10/09 06:44:53;;;;;;;0.90;0.47;;;;;;;7.17;82.62;97088.53;5054042;28;20040;-61
2021/10/09 07:01:04;;;;;;;0.50;0.50;;;;;;;7.49;81.70;97113.16;5053666;28;20036;-61
2021/10/09 07:03:30;;;;;;;1.40;0.60;;;;;;;7.49;81.72;97107.97;5053501;28;20025;-62
2021/10/09 07:05:56;;;;;;;0.50;0.50;;;;;;;7.48;82.04;97110.59;5053586;28;20552;-61
2021/10/09 07:08:22;;;;;;;0.65;0.60;;;;;;;7.58;81.07;97114.75;5053426;28;20025;-61
2021/10/09 07:10:53;;;;;;;0.40;0.40;;;;;;;7.54;80.56;97119.16;5053465;28;20021;-61
2021/10/09 07:13:19;;;;;;;;;;;;;;;7.62;81.38;97120.78;5053928;28;20032;-61
2021/10/09 07:15:45;;;;;;;1.38;0.50;;;;;;;7.62;81.79;97123.38;5053395;28;20472;-61
2021/10/09 07:18:13;;;;;;;0.90;0.47;;;;;;;7.67;82.04;97127.63;5053272;28;20028;-61
2021/10/09 07:20:41;;;;;;;0.50;0.50;;;;;;;7.70;81.81;97132.78;5053252;28;20037;-61
2021/10/09 07:23:10;;;;;;;0.70;0.50;;;;;;;7.74;81.39;97132.72;5053021;28;20398;-61
2021/10/09 07:25:37;;;;;;;1.13;0.70;;;;;;;7.75;80.76;97130.09;5053260;28;20033;-61
2021/10/09 07:28:03;;;;;;;0.60;0.60;;;;;;;7.78;80.82;97131.78;5053154;28;20441;-62
2021/10/09 07:30:30;;;;;;;0.60;0.55;;;;;;;7.76;80.07;97133.53;5053145;28;20044;-61
2021/10/09 07:32:56;;;;;;;0.57;0.57;;;;;;;7.78;81.03;97137.00;5053187;28;20065;-61
2021/10/09 07:35:22;;;;;;;1.88;0.80;;;;;;;7.77;81.66;97136.13;5053041;28;20497;-61
2021/10/09 07:37:49;;;;;;;0.50;0.50;;;;;;;7.77;80.99;97138.72;5052777;28;20037;-61
2021/10/09 07:40:16;;;;;;;1.85;0.80;;;;;;;7.75;80.73;97143.13;5053012;28;20020;-62
2021/10/09 07:42:42;;;;;;;0.60;0.60;;;;;;;7.74;82.12;97144.03;5052936;28;20479;-61
2021/10/09 07:45:08;;;;;;;2.05;0.57;;;;;;;7.83;83.05;97138.63;5052997;28;20033;-61
2021/10/09 07:47:34;;;;;;;0.60;0.60;;;;;;;7.86;81.93;97140.34;5053008;28;20439;-61
2021/10/09 07:50:00;;;;;;;0.60;0.60;;;;;;;7.89;82.36;97139.44;5052949;28;20100;-61
2021/10/09 08:04:00;;;;;;;0.60;0.60;;;;;;;8.61;79.26;97131.13;5099284;27;1534657;-63
2021/10/09 08:06:26;;;;;;;0.50;0.50;;;;;;;8.56;79.55;97135.59;5131240;28;20035;-62
2021/10/09 08:08:52;;;;;;;0.55;0.55;;;;;;;8.41;80.61;97128.91;5131261;28;20027;-63
2021/10/09 08:11:18;;;;;;;1.42;0.57;;;;;;;8.35;80.38;97137.72;5131051;28;20047;-62
2021/10/09 08:13:44;;;;;;;0.55;0.55;;;;;;;8.32;80.35;97137.75;5131173;28;20027;-62
2021/10/09 08:16:10;;;;;;;1.15;0.70;;;;;;;8.30;81.44;97135.19;5131070;28;20071;-62
2021/10/09 08:18:36;;;;;;;1.02;0.50;;;;;;;8.22;81.22;97129.28;5131124;28;20012;-62
2021/10/09 08:21:06;;;;;;;0.52;0.52;;;;;;;8.12;81.67;97136.38;5131157;28;20461;-62
2021/10/09 08:39:44;;;;;;;0.73;0.68;;;;;;;7.88;82.07;97142.91;5130787;28;20020;-62
2021/10/09 08:42:11;;;;;;;0.52;0.52;;;;;;;7.94;82.47;97148.00;5130858;28;20098;-61
2021/10/09 08:44:40;;;;;;;0.55;0.55;;;;;;;7.95;82.92;97142.75;5130664;28;20361;-61
2021/10/09 08:47:12;;;;;;;2.17;0.50;;;;;;;7.94;81.56;97150.59;5130651;28;20031;-62
2021/10/09 08:49:39;;;;;;;0.40;0.40;;;;;;;8.01;82.17;97144.41;5130683;28;20088;-61
2021/10/09 08:52:05;;;;;;;0.50;0.50;;;;;;;7.92;81.00;97141.97;5130555;28;20049;-62
2021/10/09 08:54:35;;;;;;;0.50;0.50;;;;;;;7.90;80.86;97152.44;5130443;28;20023;-61
2021/10/09 08:57:14;;;;;;;0.50;0.50;;;;;;;7.86;82.36;97148.16;5112120;28;20028;-62
2021/10/09 09:00:09;;;;;;;0.57;0.57;;;;;;;7.85;81.43;97159.44;5130527;28;20027;-62
2021/10/09 09:02:41;;;;;;;0.82;0.60;;;;;;;7.87;82.14;97162.03;5130237;27;20043;-61
2021/10/09 09:08:29;;;;;;;0.50;0.50;;;;;;;7.74;81.81;97164.00;5033837;28;20033;-61
2021/10/09 09:35:44;;;;;;;0.82;0.60;;;;;;;7.86;81.54;97155.97;5115960;28;20036;-61
2021/10/09 09:41:12;;;;;;;2.45;0.50;;;;;;;8.02;82.65;97153.09;5116016;28;20092;-62
2021/10/09 09:43:40;;;;;;;0.50;0.50;;;;;;;8.11;83.68;97155.53;5097549;28;20394;-61
2021/10/09 09:46:17;;;;;;;1.95;0.57;;;;;;;8.09;82.25;97157.28;5115742;28;20051;-61
2021/10/09 09:48:46;;;;;;;0.50;0.50;;;;;;;8.17;81.91;97159.75;5115776;28;20020;-61
2021/10/09 09:51:14;;;;;;;0.57;0.57;;;;;;;8.20;80.96;97155.38;5115664;28;20460;-62
2021/10/09 09:53:40;;;;;;;0.55;0.55;;;;;;;8.21;79.89;97164.91;5115703;28;20031;-61
2021/10/09 09:56:11;;;;;;;1.88;0.90;;;;;;;8.31;80.49;97168.19;5115493;28;20051;-61
2021/10/09 09:58:51;;;;;;;;;;;;;;;8.33;81.45;97168.16;5115843;28;20023;-62
2021/10/09 10:01:17;;;;;;;0.68;0.60;;;;;;;8.36;82.40;97175.91;5115594;28;19912;-62
2021/10/09 10:03:47;;;;;;;2.00;0.60;;;;;;;8.40;80.47;97185.38;5115204;28;20074;-62
2021/10/09 10:06:15;;;;;;;0.80;0.80;;;;;;;8.43;80.80;97187.09;5115571;28;20460;-62
2021/10/09 10:08:41;;;;;;;0.65;0.65;;;;;;;8.42;79.68;97177.53;5115314;28;20020;-62
2021/10/09 10:11:09;;;;;;;0.70;0.70;;;;;;;8.38;79.82;97181.09;5115245;28;20042;-62
2021/10/09 10:13:36;;;;;;;0.60;0.60;;;;;;;8.37;80.14;97171.56;5115114;28;20024;-62
2021/10/09 10:16:11;;;;;;;0.80;0.80;;;;;;;8.37;80.83;97169.81;5114097;28;20032;-62
2021/10/09 10:18:46;;;;;;;0.73;0.60;;;;;;;8.39;79.87;97161.97;5115103;28;20030;-61
2021/10/09 10:21:12;;;;;;;0.50;0.50;;;;;;;8.39;80.33;97168.03;5114947;28;20019;-63
2021/10/09 10:23:41;;;;;;;3.10;0.70;;;;;;;8.44;81.19;97158.41;5115017;28;20077;-62
2021/10/09 10:26:19;;;;;;;0.40;0.40;;;;;;;8.56;81.43;97162.53;5114858;28;20031;-62
2021/10/09 10:28:45;;;;;;;2.13;0.80;;;;;;;8.59;80.90;97164.22;5115067;28;20027;-62
2021/10/09 10:31:11;;;;;;;1.45;0.60;;;;;;;8.68;79.68;97165.78;5114921;28;20070;-62
2021/10/09 10:33:47;;;;;;;0.80;0.80;;;;;;;8.76;78.93;97160.41;5114600;28;20464;-62
2021/10/09 10:36:46;;;;;;;0.77;0.77;;;;;;;8.91;80.16;97159.22;5114771;28;20349;-62
2021/10/09 10:39:17;;;;;;;0.70;0.70;;;;;;;9.04;80.55;97163.28;5114809;28;20028;-62
2021/10/09 10:42:06;;;;;;;1.88;0.80;;;;;;;9.13;79.06;97166.56;5114599;28;20039;-62
2021/10/09 10:44:51;;;;;;;0.70;0.68;;;;;;;9.33;79.24;97168.75;5114496;28;20031;-62
2021/10/09 10:48:16;;;;;;;0.73;0.73;;;;;;;9.43;77.36;97161.56;5114548;28;20080;-62
2021/10/09 10:53:18;;;;;;;1.63;0.77;;;;;;;9.47;77.06;97161.44;5114478;28;20080;-61
2021/10/09 10:56:08;;;;;;;0.80;0.77;;;;;;;9.47;76.96;97160.59;5114350;28;20480;-62
2021/10/09 10:58:36;;;;;;;0.80;0.80;;;;;;;9.56;76.42;97157.75;5114277;28;20537;-61
2021/10/09 11:01:16;;;;;;;0.88;0.88;;;;;;;9.57;76.95;97159.47;5114304;28;20019;-61
2021/10/09 11:03:49;;;;;;;0.98;0.98;;;;;;;9.57;76.18;97154.25;5114121;28;20049;-61
2021/10/09 11:06:18;;;;;;;3.42;1.05;;;;;;;9.46;74.57;97149.28;5095990;28;20471;-61
2021/10/09 11:08:51;;;;;;;2.33;1.00;;;;;;;9.48;77.02;97147.50;5113995;28;20084;-61
2021/10/09 11:11:31;;;;;;;1.30;0.80;;;;;;;9.54;76.68;97149.09;5114112;28;20030;-61
2021/10/09 11:13:57;;;;;;;1.08;0.85;;;;;;;9.67;76.54;97154.91;5114330;28;20053;-61
2021/10/09 11:16:30;;;;;;;0.75;0.75;;;;;;;9.73;77.39;97152.09;5114217;28;20031;-61
2021/10/09 11:18:56;;;;;;;1.15;0.95;;;;;;;9.72;74.86;97155.63;5114209;28;20099;-61
2021/10/09 11:21:22;;;;;;;0.70;0.70;;;;;;;9.74;76.88;97152.97;5113975;28;20051;-61
2021/10/09 11:23:57;;;;;;;0.70;0.70;;;;;;;9.73;74.09;97149.50;5113969;28;20019;-61
2021/10/09 11:26:25;;;;;;;0.80;0.80;;;;;;;9.70;75.00;97153.94;5113592;28;20020;-61
2021/10/09 11:29:02;;;;;;;0.77;0.77;;;;;;;9.64;74.25;97161.94;5114021;28;20073;-61
2021/10/09 11:31:29;;;;;;;3.17;0.90;;;;;;;9.58;75.24;97155.13;5113629;28;20076;-61
2021/10/09 11:33:58;;;;;;;1.00;0.80;;;;;;;9.63;74.43;97150.63;5113539;28;20023;-62
2021/10/09 11:36:25;;;;;;;1.65;0.80;;;;;;;9.64;74.91;97152.34;5113697;28;20020;-62
2021/10/09 11:39:08;;;;;;;1.15;0.90;;;;;;;9.76;75.98;97153.81;5113795;28;20023;-61
2021/10/09 11:41:33;;;;;;;0.90;0.90;;;;;;;9.81;75.24;97149.31;5113916;28;20038;-62
2021/10/09 11:46:46;;;;;;;0.77;0.77;;;;;;;9.74;75.03;97158.19;5113709;28;20023;-62
2021/10/09 11:55:21;;;;;;;1.50;0.90;;;;;;;9.67;74.21;97160.13;5113742;28;20042;-61
2021/10/09 11:57:49;;;;;;;1.48;0.88;;;;;;;9.63;74.33;97158.47;5113473;28;20024;-61
2021/10/09 12:00:30;;;;;;;2.95;1.00;;;;;;;9.59;73.80;97157.69;5113372;28;20381;-61
2021/10/09 12:02:56;;;;;;;1.08;0.90;;;;;;;9.69;74.32;97160.09;5113243;28;20445;-61
2021/10/09 12:05:23;;;;;;;1.13;0.82;;;;;;;9.78;74.13;97174.69;5095373;28;20124;-61
2021/10/09 12:08:52;;;;;;;0.80;0.80;;;;;;;9.85;74.44;97158.78;5113363;28;20024;-61
2021/10/09 12:11:21;;;;;;;2.55;1.02;;;;;;;9.98;74.99;97158.47;5102359;28;20044;-61
2021/10/09 12:13:50;;;;;;;1.67;1.02;;;;;;;9.95;73.00;97164.66;5113551;28;20062;-61
2021/10/09 12:16:22;;;;;;;1.45;0.80;;;;;;;9.93;72.56;97165.59;5113390;28;20065;-62
2021/10/09 12:18:54;;;;;;;0.90;0.90;;;;;;;9.91;73.18;97165.63;5113417;28;20039;-62
2021/10/09 12:21:22;;;;;;;1.20;0.80;;;;;;;9.89;73.99;97161.31;5113161;28;20035;-61
2021/10/09 12:23:48;;;;;;;3.70;1.15;;;;;;;9.91;76.21;97163.03;5113166;28;20471;-62
2021/10/09 12:26:16;;;;;;;1.02;0.90;;;;;;;9.85;73.44;97160.56;5113125;28;20373;-62
2021/10/09 12:29:03;;;;;;;1.85;1.00;;;;;;;9.76;73.24;97158.16;5113259;28;20020;-62
2021/10/09 12:31:30;;;;;;;1.50;1.00;;;;;;;9.61;73.70;97155.88;5113327;28;20077;-62
2021/10/09 12:33:59;;;;;;;1.42;1.27;;;;;;;9.59;74.91;97154.22;5113314;28;20047;-62
2021/10/09 12:36:40;;;;;;;4.85;1.00;;;;;;;9.61;75.04;97148.03;5113356;28;20019;-61
2021/10/09 12:39:23;;;;;;;1.73;1.17;;;;;;;9.66;74.79;97147.09;5114690;28;20027;-61
2021/10/09 12:41:52;;;;;;;2.22;1.15;;;;;;;9.61;75.00;97144.59;5117041;28;20106;-62
2021/10/09 12:44:19;;;;;;;1.05;1.05;;;;;;;9.69;74.96;97140.03;5116919;28;20028;-62
2021/10/09 12:46:45;;;;;;;1.35;1.10;;;;;;;9.67;74.59;97144.44;5098521;28;20020;-61
2021/10/09 12:49:11;;;;;;;1.60;1.20;;;;;;;9.63;73.91;97153.22;5116856;28;20058;-62
2021/10/09 12:51:37;;;;;;;1.13;1.02;;;;;;;9.59;73.97;97151.59;5116703;28;20027;-62
2021/10/09 12:54:07;;;;;;;3.58;1.17;;;;;;;9.61;74.35;97148.03;5116675;28;20030;-61
2021/10/09 12:56:35;;;;;;;1.80;1.20;;;;;;;9.66;74.05;97149.72;5116670;28;20076;-62
2021/10/09 12:59:01;;;;;;;1.55;1.15;;;;;;;9.70;74.74;97146.94;5116619;28;20027;-61
2021/10/09 13:01:28;;;;;;;1.15;1.00;;;;;;;9.76;75.16;97143.34;5116588;28;20019;-61
2021/10/09 13:03:54;;;;;;;1.55;1.30;;;;;;;9.70;73.63;97148.72;5116275;28;20044;-61
2021/10/09 13:06:23;;;;;;;1.83;0.90;;;;;;;9.61;74.13;97147.19;5116500;28;20031;-62
2021/10/09 13:08:49;;;;;;;2.05;1.00;;;;;;;9.51;73.96;97149.16;5116403;28;20148;-61
2021/10/09 13:11:18;;;;;;;1.98;1.23;;;;;;;9.48;73.85;97152.72;5116376;28;20015;-62
2021/10/09 13:13:45;;;;;;;1.90;1.25;;;;;;;9.46;74.02;97151.03;5116199;28;20480;-61
2021/10/09 13:16:11;;;;;;;1.15;1.00;;;;;;;9.37;74.32;97151.25;5116265;28;20426;-62
2021/10/09 13:18:37;;;;;;;2.15;1.10;;;;;;;9.31;74.30;97145.28;5116335;28;20465;-62
2021/10/09 13:21:03;;;;;;;1.13;1.00;;;;;;;9.25;74.55;97137.59;5116149;28;20031;-62
2021/10/09 13:23:31;;;;;;;2.00;1.20;;;;;;;9.25;74.32;97141.94;5116151;28;20020;-62
2021/10/09 13:26:06;;;;;;;3.33;1.40;;;;;;;9.29;75.34;97140.97;5116075;28;20107;-61
2021/10/09 13:28:32;;;;;;;1.98;1.20;;;;;;;9.26;74.87;97136.69;5116350;28;20470;-62
2021/10/09 13:30:58;;;;;;;1.38;1.10;;;;;;;9.22;74.53;97130.66;5116054;28;20107;-61
2021/10/09 13:33:24;;;;;;;1.67;1.40;;;;;;;9.23;74.09;97134.16;5115947;28;20051;-61
2021/10/09 13:35:50;;;;;;;1.92;1.05;;;;;;;9.25;74.17;97137.59;5115939;28;20058;-62
2021/10/09 13:38:16;;;;;;;2.10;1.23;;;;;;;9.27;74.84;97135.78;5115819;28;20054;-61
2021/10/09 13:40:42;;;;;;;2.97;1.33;;;;;;;9.29;74.93;97133.16;5116092;28;20088;-62
2021/10/09 13:43:27;;;;;;;3.40;1.25;;;;;;;9.29;74.97;97135.75;5115901;28;20024;-62
2021/10/09 13:46:03;;;;;;;1.48;1.20;;;;;;;9.28;74.23;97141.88;5115710;28;20510;-62
2021/10/09 13:48:29;;;;;;;1.73;1.30;;;;;;;9.30;74.84;97145.31;5115505;28;20039;-61
2021/10/09 13:50:55;;;;;;;3.10;1.75;;;;;;;9.30;74.67;97148.78;5115477;28;20016;-61
2021/10/09 13:53:21;;;;;;;1.33;1.05;;;;;;;9.40;74.80;97156.41;5115545;28;20524;-62
2021/10/09 13:55:49;;;;;;;1.83;1.40;;;;;;;9.31;74.21;97160.97;5115614;28;20030;-62
2021/10/09 13:58:15;;;;;;;1.85;1.50;;;;;;;9.29;74.64;97164.47;5115282;28;20042;-61
2021/10/09 14:00:43;;;;;;;1.73;1.40;;;;;;;9.31;74.94;97163.56;5115374;28;20072;-61
2021/10/09 14:03:09;;;;;;;1.30;1.10;;;;;;;9.28;75.75;97166.25;5115112;28;20047;-62
2021/10/09 14:05:36;;;;;;;1.63;1.38;;;;;;;9.33;76.94;97166.16;5115514;28;20069;-62
2021/10/09 14:08:03;;;;;;;1.42;1.33;;;;;;;9.33;76.69;97158.31;5115595;28;20031;-61
2021/10/09 14:10:29;;;;;;;1.40;1.30;;;;;;;9.28;77.01;97161.03;5115309;28;20115;-61
2021/10/09 14:12:57;;;;;;;2.05;1.50;;;;;;;9.19;76.04;97172.53;5115004;28;20106;-61